createdAt,value
2019-05-16T00:00:59.591Z,60.62
2019-05-16T00:03:29.741Z,60.13
2019-05-16T00:06:00.762Z,60.73
2019-05-16T00:08:30.769Z,60.53
2019-05-16T00:11:00.750Z,60.35
2019-05-16T00:13:30.901Z,59.77
2019-05-16T00:16:00.919Z,59.72
2019-05-16T00:18:31.137Z,59.40
2019-05-16T00:21:01.153Z,59.23
2019-05-16T00:23:32.801Z,59.47
2019-05-16T00:26:02.783Z,59.46
2019-05-16T00:28:32.859Z,59.13
2019-05-16T00:31:02.849Z,59.16
2019-05-16T00:33:32.855Z,59.24
2019-05-16T00:36:05.908Z,59.35
2019-05-16T00:38:34.611Z,59.49
2019-05-16T00:41:08.340Z,59.65
2019-05-16T00:43:38.011Z,60.24
2019-05-16T00:46:10.114Z,60.02
2019-05-16T00:48:39.911Z,59.78
2019-05-16T00:51:10.351Z,59.91
2019-05-16T00:53:40.419Z,59.71
2019-05-16T00:56:10.941Z,59.82
2019-05-16T00:58:41.770Z,60.22
2019-05-16T01:01:12.145Z,60.10
2019-05-16T01:03:43.678Z,59.59
2019-05-16T01:06:18.610Z,59.57
2019-05-16T01:08:48.739Z,59.92
2019-05-16T01:11:18.935Z,60.15
2019-05-16T01:13:50.603Z,60.03
2019-05-16T01:16:20.606Z,59.91
2019-05-16T01:18:50.680Z,59.83
2019-05-16T01:21:20.688Z,60.05
2019-05-16T01:23:50.674Z,60.56
2019-05-16T01:26:21.325Z,60.23
2019-05-16T01:28:51.728Z,59.97
2019-05-16T01:31:22.171Z,59.38
2019-05-16T01:33:54.876Z,59.40
2019-05-16T01:36:34.271Z,60.05
2019-05-16T01:38:58.471Z,60.25
2019-05-16T01:41:28.562Z,60.58
2019-05-16T01:43:58.622Z,60.72
2019-05-16T01:46:28.638Z,60.49
2019-05-16T01:48:58.644Z,60.63
2019-05-16T01:51:28.898Z,60.19
2019-05-16T01:53:58.936Z,60.20
2019-05-16T01:56:29.058Z,59.74
2019-05-16T01:58:59.122Z,59.75
2019-05-16T02:01:29.181Z,60.29
2019-05-16T02:03:59.185Z,60.20
2019-05-16T02:06:29.262Z,60.04
2019-05-16T02:09:00.978Z,59.85
2019-05-16T02:11:32.256Z,59.45
2019-05-16T02:14:02.384Z,59.81
2019-05-16T02:16:32.458Z,60.30
2019-05-16T02:19:02.464Z,60.45
2019-05-16T02:21:32.455Z,60.35
2019-05-16T02:24:02.529Z,60.08
2019-05-16T02:26:32.518Z,59.31
2019-05-16T02:29:02.524Z,59.78
2019-05-16T02:31:32.539Z,59.79
2019-05-16T02:34:04.769Z,60.17
2019-05-16T02:36:34.547Z,60.22
2019-05-16T02:39:10.916Z,61.01
2019-05-16T02:41:45.609Z,60.81
2019-05-16T02:44:12.151Z,61.17
2019-05-16T02:46:42.432Z,61.05
2019-05-16T02:49:12.431Z,61.30
2019-05-16T02:51:44.017Z,61.15
2019-05-16T02:54:14.043Z,61.18
2019-05-16T02:56:44.026Z,60.69
2019-05-16T02:59:14.030Z,60.92
2019-05-16T03:01:44.022Z,61.09
2019-05-16T03:04:14.184Z,60.87
2019-05-16T03:06:44.818Z,61.65
2019-05-16T03:09:15.132Z,61.80
2019-05-16T03:11:46.146Z,61.61
2019-05-16T03:14:21.217Z,61.55
2019-05-16T03:16:50.779Z,61.48
2019-05-16T03:19:22.948Z,62.22
2019-05-16T03:21:54.881Z,61.20
2019-05-16T03:24:24.888Z,61.69
2019-05-16T03:26:54.894Z,61.51
2019-05-16T03:29:26.023Z,61.87
2019-05-16T03:31:56.090Z,61.82
2019-05-16T03:34:26.647Z,62.34
2019-05-16T03:36:56.774Z,61.88
2019-05-16T03:39:26.848Z,61.48
2019-05-16T03:41:56.849Z,61.11
2019-05-16T03:44:26.865Z,60.41
2019-05-16T03:46:56.858Z,60.04
2019-05-16T03:49:30.925Z,60.74
2019-05-16T03:52:01.418Z,60.48
2019-05-16T03:54:31.398Z,60.86
2019-05-16T03:57:01.780Z,60.94
2019-05-16T03:59:31.750Z,61.29
2019-05-16T04:02:04.143Z,61.71
2019-05-16T04:04:36.209Z,61.12
2019-05-16T04:07:10.803Z,61.92
2019-05-16T04:09:41.647Z,62.04
2019-05-16T04:12:11.650Z,62.09
2019-05-16T04:14:41.638Z,61.83
2019-05-16T04:17:11.644Z,61.78
2019-05-16T04:19:43.571Z,62.16
2019-05-16T04:22:15.400Z,62.56
2019-05-16T04:24:45.453Z,61.95
2019-05-16T04:27:15.478Z,61.45
2019-05-16T04:29:45.466Z,61.03
2019-05-16T04:32:15.477Z,59.78
2019-05-16T04:34:46.989Z,61.16
2019-05-16T04:37:16.997Z,59.71
2019-05-16T04:39:46.988Z,59.57
2019-05-16T04:42:16.991Z,60.26
2019-05-16T04:44:47.008Z,60.06
2019-05-16T04:47:17.067Z,60.31
2019-05-16T04:49:51.969Z,60.55
2019-05-16T04:52:25.891Z,60.88
2019-05-16T04:54:55.921Z,61.71
2019-05-16T04:57:25.896Z,62.03
2019-05-16T04:59:55.904Z,61.86
2019-05-16T05:02:25.914Z,62.38
2019-05-16T05:04:56.358Z,62.40
2019-05-16T05:07:30.993Z,62.57
2019-05-16T05:10:00.525Z,61.93
2019-05-16T05:12:31.743Z,62.01
2019-05-16T05:15:01.883Z,63.19
2019-05-16T05:17:31.893Z,62.88
2019-05-16T05:20:01.965Z,62.23
2019-05-16T05:22:32.146Z,63.15
2019-05-16T05:25:02.209Z,62.77
2019-05-16T05:27:33.289Z,63.98
2019-05-16T05:30:03.554Z,63.28
2019-05-16T05:32:33.616Z,64.15
2019-05-16T05:35:05.351Z,64.93
2019-05-16T05:37:35.315Z,67.42
2019-05-16T05:40:10.748Z,68.18
2019-05-16T05:42:41.465Z,69.77
2019-05-16T05:45:11.702Z,69.75
2019-05-16T05:47:41.785Z,71.00
2019-05-16T05:50:12.434Z,72.09
2019-05-16T05:52:42.426Z,71.66
2019-05-16T05:55:12.980Z,71.90
2019-05-16T05:57:43.010Z,72.85
2019-05-16T06:00:13.534Z,73.32
2019-05-16T06:02:43.539Z,72.60
2019-05-16T06:05:13.764Z,73.28
2019-05-16T06:07:43.778Z,73.87
2019-05-16T06:10:14.104Z,73.69
2019-05-16T06:12:44.188Z,73.26
2019-05-16T06:15:14.608Z,72.92
2019-05-16T06:17:44.636Z,73.03
2019-05-16T06:20:15.078Z,73.21
2019-05-16T06:22:45.127Z,72.98
2019-05-16T06:25:15.379Z,72.79
2019-05-16T06:27:45.929Z,72.90
2019-05-16T06:30:16.276Z,72.17
2019-05-16T06:32:46.257Z,73.40
2019-05-16T06:35:17.482Z,73.41
2019-05-16T06:37:51.197Z,73.20
2019-05-16T06:40:21.102Z,73.74
2019-05-16T06:42:53.508Z,74.09
2019-05-16T06:45:23.645Z,72.74
2019-05-16T06:47:53.714Z,73.50
2019-05-16T06:50:23.751Z,73.53
2019-05-16T06:52:53.815Z,73.22
2019-05-16T06:55:23.824Z,72.81
2019-05-16T06:57:57.263Z,72.87
2019-05-16T07:00:29.895Z,74.17
2019-05-16T07:03:00.405Z,74.24
2019-05-16T07:05:30.506Z,74.88
2019-05-16T07:08:00.528Z,74.37
2019-05-16T07:10:30.735Z,75.33
2019-05-16T07:13:00.895Z,75.91
2019-05-16T07:15:32.176Z,76.41
2019-05-16T07:18:02.168Z,77.02
2019-05-16T07:20:32.494Z,77.22
2019-05-16T07:23:04.256Z,78.42
2019-05-16T07:25:34.345Z,77.16
2019-05-16T07:28:07.185Z,79.16
2019-05-16T07:30:37.233Z,79.39
2019-05-16T07:33:09.688Z,80.25
2019-05-16T07:35:40.124Z,80.36
2019-05-16T07:38:10.733Z,79.64
2019-05-16T07:40:40.903Z,80.34
2019-05-16T07:43:10.980Z,80.39
2019-05-16T07:45:40.977Z,80.75
2019-05-16T07:48:11.134Z,82.15
2019-05-16T07:50:41.205Z,80.71
2019-05-16T07:53:11.279Z,81.50
2019-05-16T07:55:41.280Z,81.58
2019-05-16T07:58:13.307Z,81.15
2019-05-16T08:00:52.461Z,80.66
2019-05-16T08:03:19.929Z,81.41
2019-05-16T08:05:51.489Z,81.48
2019-05-16T08:08:24.242Z,80.97
2019-05-16T08:10:53.677Z,80.88
2019-05-16T08:13:23.688Z,82.03
2019-05-16T08:15:53.778Z,81.21
2019-05-16T08:18:23.801Z,81.96
2019-05-16T08:20:53.800Z,81.53
2019-05-16T08:23:24.170Z,81.39
2019-05-16T08:25:54.235Z,82.08
2019-05-16T08:28:25.290Z,82.01
2019-05-16T08:30:55.290Z,82.42
2019-05-16T08:33:28.082Z,82.52
2019-05-16T08:36:04.738Z,83.47
2019-05-16T08:38:30.896Z,83.75
2019-05-16T08:41:11.554Z,82.70
2019-05-16T08:43:33.227Z,82.80
2019-05-16T08:46:03.310Z,81.92
2019-05-16T08:48:33.332Z,82.87
2019-05-16T08:51:03.454Z,82.58
2019-05-16T08:53:33.489Z,82.55
2019-05-16T08:56:03.921Z,83.33
2019-05-16T08:58:34.047Z,83.53
2019-05-16T09:01:04.417Z,83.66
2019-05-16T09:03:35.497Z,83.74
2019-05-16T09:06:05.566Z,84.76
2019-05-16T09:08:36.053Z,85.53
2019-05-16T09:11:27.061Z,84.97
2019-05-16T09:13:39.636Z,86.53
2019-05-16T09:16:09.766Z,86.52
2019-05-16T09:18:44.823Z,86.31
2019-05-16T09:21:11.932Z,85.79
2019-05-16T09:23:42.031Z,86.53
2019-05-16T09:26:19.516Z,85.83
2019-05-16T09:28:43.870Z,85.24
2019-05-16T09:31:13.887Z,85.75
2019-05-16T09:33:43.974Z,86.20
2019-05-16T09:36:17.210Z,86.38
2019-05-16T09:38:48.584Z,85.43
2019-05-16T09:41:17.535Z,84.93
2019-05-16T09:43:48.907Z,84.94
2019-05-16T09:46:19.152Z,85.37
2019-05-16T09:48:49.382Z,85.43
2019-05-16T09:51:21.370Z,85.05
2019-05-16T09:53:51.108Z,85.21
2019-05-16T09:56:21.286Z,84.63
2019-05-16T09:58:52.334Z,84.67
2019-05-16T10:01:22.439Z,83.90
2019-05-16T10:03:52.586Z,84.17
2019-05-16T10:06:22.746Z,83.83
2019-05-16T10:08:52.868Z,84.56
2019-05-16T10:11:23.001Z,84.43
2019-05-16T10:13:53.010Z,84.87
2019-05-16T10:16:23.000Z,84.20
2019-05-16T10:18:53.039Z,83.66
2019-05-16T10:21:23.148Z,82.42
2019-05-16T10:23:53.212Z,82.72
2019-05-16T10:26:23.379Z,82.50
2019-05-16T10:28:53.433Z,82.27
2019-05-16T10:31:37.724Z,83.01
2019-05-16T10:33:57.701Z,83.34
2019-05-16T10:36:28.154Z,83.76
2019-05-16T10:38:59.108Z,83.21
2019-05-16T10:41:29.492Z,83.67
2019-05-16T10:43:59.477Z,83.89
2019-05-16T10:46:29.559Z,84.11
2019-05-16T10:48:59.621Z,85.17
2019-05-16T10:51:30.741Z,84.69
2019-05-16T10:54:09.753Z,85.39
2019-05-16T10:56:33.759Z,86.29
2019-05-16T10:59:37.817Z,86.49
2019-05-16T11:01:36.695Z,85.35
2019-05-16T11:04:07.446Z,85.66
2019-05-16T11:06:37.771Z,85.92
2019-05-16T11:09:09.939Z,86.36
2019-05-16T11:11:40.810Z,86.06
2019-05-16T11:14:10.803Z,86.01
2019-05-16T11:16:40.843Z,86.82
2019-05-16T11:19:17.931Z,86.49
2019-05-16T11:21:42.689Z,86.92
2019-05-16T11:24:13.558Z,86.95
2019-05-16T11:26:43.957Z,87.42
2019-05-16T11:29:16.358Z,86.88
2019-05-16T11:31:46.880Z,86.28
2019-05-16T11:34:17.440Z,86.42
2019-05-16T11:36:48.015Z,87.00
2019-05-16T11:39:19.080Z,87.20
2019-05-16T11:41:49.090Z,87.18
2019-05-16T11:44:19.199Z,87.62
2019-05-16T11:46:49.412Z,88.03
2019-05-16T11:49:20.368Z,88.21
2019-05-16T11:51:50.427Z,87.03
2019-05-16T11:54:20.544Z,86.26
2019-05-16T11:56:50.625Z,86.50
2019-05-16T11:59:20.633Z,86.00
2019-05-16T12:01:50.604Z,86.14
2019-05-16T12:04:20.622Z,86.60
2019-05-16T12:06:50.624Z,87.19
2019-05-16T12:09:20.648Z,86.60
2019-05-16T12:11:59.607Z,87.63
2019-05-16T12:14:22.432Z,87.50
2019-05-16T12:16:52.421Z,87.86
2019-05-16T12:19:22.464Z,86.65
2019-05-16T12:21:52.560Z,87.15
2019-05-16T12:24:33.023Z,86.60
2019-05-16T12:26:56.911Z,87.40
2019-05-16T12:29:28.135Z,86.60
2019-05-16T12:32:02.721Z,86.72
2019-05-16T12:34:30.708Z,86.58
2019-05-16T12:37:00.734Z,87.12
2019-05-16T12:39:31.014Z,86.70
2019-05-16T12:42:01.141Z,86.54
2019-05-16T12:44:32.880Z,86.70
2019-05-16T12:47:02.977Z,86.37
2019-05-16T12:49:32.961Z,87.10
2019-05-16T12:52:06.586Z,86.86
2019-05-16T12:54:37.675Z,86.74
2019-05-16T12:57:07.736Z,87.02
2019-05-16T12:59:41.906Z,87.56
2019-05-16T13:02:09.457Z,87.27
2019-05-16T13:04:39.479Z,88.15
2019-05-16T13:07:09.894Z,87.99
2019-05-16T13:09:40.049Z,87.61
2019-05-16T13:12:10.135Z,87.72
2019-05-16T13:14:40.555Z,87.86
2019-05-16T13:17:10.619Z,87.84
2019-05-16T13:19:44.216Z,87.67
2019-05-16T13:22:12.577Z,87.38
2019-05-16T13:24:42.690Z,88.38
2019-05-16T13:27:12.686Z,88.49
2019-05-16T13:29:42.698Z,88.34
2019-05-16T13:32:13.173Z,88.78
2019-05-16T13:34:43.185Z,88.61
2019-05-16T13:37:13.269Z,88.35
2019-05-16T13:39:43.301Z,88.24
2019-05-16T13:42:13.557Z,87.92
2019-05-16T13:44:47.121Z,88.47
2019-05-16T13:47:17.770Z,88.46
2019-05-16T13:49:47.772Z,88.95
2019-05-16T13:52:17.932Z,89.33
2019-05-16T13:54:47.993Z,89.81
2019-05-16T13:57:18.010Z,89.77
2019-05-16T13:59:49.207Z,89.96
2019-05-16T14:02:22.137Z,89.77
2019-05-16T14:04:52.375Z,89.68
2019-05-16T14:07:22.372Z,89.94
2019-05-16T14:09:52.383Z,89.63
2019-05-16T14:12:23.465Z,89.92
2019-05-16T14:14:53.465Z,89.45
2019-05-16T14:17:23.488Z,90.03
2019-05-16T14:19:53.569Z,89.62
2019-05-16T14:22:23.568Z,89.85
2019-05-16T14:24:57.030Z,88.65
2019-05-16T14:27:27.114Z,88.85
2019-05-16T14:29:57.911Z,88.69
2019-05-16T14:32:29.765Z,89.14
2019-05-16T14:34:59.947Z,88.55
2019-05-16T14:37:29.945Z,88.65
2019-05-16T14:40:01.334Z,89.30
2019-05-16T14:42:32.066Z,89.31
2019-05-16T14:45:10.831Z,88.54
2019-05-16T14:47:34.008Z,88.87
2019-05-16T14:50:11.560Z,88.71
2019-05-16T14:52:36.711Z,88.81
2019-05-16T14:55:07.471Z,89.11
2019-05-16T14:57:37.663Z,89.48
2019-05-16T15:00:09.429Z,88.92
2019-05-16T15:02:39.519Z,88.86
2019-05-16T15:05:09.947Z,88.91
2019-05-16T15:07:40.039Z,89.20
2019-05-16T15:10:10.575Z,89.43
2019-05-16T15:12:40.733Z,89.88
2019-05-16T15:15:24.312Z,89.27
2019-05-16T15:17:47.326Z,89.31
2019-05-16T15:20:18.249Z,89.54
2019-05-16T15:22:48.579Z,89.38
2019-05-16T15:25:19.368Z,89.49
2019-05-16T15:27:49.387Z,89.64
2019-05-16T15:30:20.317Z,89.41
2019-05-16T15:32:50.489Z,89.80
2019-05-16T15:35:21.996Z,89.17
2019-05-16T15:37:52.309Z,88.97
2019-05-16T15:40:22.417Z,89.29
2019-05-16T15:42:52.497Z,88.93
2019-05-16T15:45:35.702Z,89.25
2019-05-16T15:47:59.883Z,89.74
2019-05-16T15:50:30.765Z,89.89
2019-05-16T15:53:01.952Z,89.94
2019-05-16T15:55:33.077Z,89.19
2019-05-16T15:58:03.326Z,89.47
2019-05-16T16:00:47.825Z,89.30
2019-05-16T16:03:19.103Z,89.86
2019-05-16T16:05:50.176Z,90.22
2019-05-16T16:08:23.288Z,90.35
2019-05-16T16:10:53.436Z,90.43
2019-05-16T16:13:23.524Z,89.80
2019-05-16T16:15:54.686Z,89.92
2019-05-16T16:18:27.032Z,90.40
2019-05-16T16:20:58.379Z,90.22
2019-05-16T16:23:28.392Z,90.97
2019-05-16T16:25:59.810Z,90.78
2019-05-16T16:28:30.169Z,90.52
2019-05-16T16:31:00.318Z,90.65
2019-05-16T16:33:30.426Z,90.41
2019-05-16T16:36:00.604Z,90.22
2019-05-16T16:38:30.769Z,90.23
2019-05-16T16:41:00.763Z,90.60
2019-05-16T16:43:30.933Z,90.45
2019-05-16T16:46:08.865Z,90.90
2019-05-16T16:48:32.880Z,91.09
2019-05-16T16:51:06.357Z,90.63
2019-05-16T16:53:37.848Z,91.08
2019-05-16T16:56:07.872Z,91.30
2019-05-16T16:58:40.735Z,91.27
2019-05-16T17:01:10.931Z,91.32
2019-05-16T17:03:41.004Z,91.27
2019-05-16T17:06:11.442Z,91.49
2019-05-16T17:08:41.567Z,91.39
2019-05-16T17:11:11.696Z,91.12
2019-05-16T17:13:42.778Z,90.99
2019-05-16T17:16:25.211Z,91.22
2019-05-16T17:18:44.593Z,91.29
2019-05-16T17:21:16.882Z,91.30
2019-05-16T17:23:46.600Z,91.00
2019-05-16T17:26:16.819Z,91.06
2019-05-16T17:28:47.353Z,91.15
2019-05-16T17:31:17.631Z,91.52
2019-05-16T17:33:47.725Z,91.53
2019-05-16T17:36:17.897Z,91.43
2019-05-16T17:38:47.988Z,91.57
2019-05-16T17:41:18.011Z,91.40
2019-05-16T17:43:48.070Z,91.01
2019-05-16T17:46:18.325Z,90.94
2019-05-16T17:48:48.494Z,90.92
2019-05-16T17:51:20.354Z,90.96
2019-05-16T17:53:50.439Z,91.04
2019-05-16T17:56:21.990Z,91.24
2019-05-16T17:58:52.279Z,91.10
2019-05-16T18:01:23.883Z,91.07
2019-05-16T18:03:54.109Z,91.13
2019-05-16T18:06:24.288Z,91.03
2019-05-16T18:08:54.359Z,90.79
2019-05-16T18:11:26.634Z,90.55
2019-05-16T18:13:57.028Z,90.53
2019-05-16T18:16:27.250Z,90.92
2019-05-16T18:18:57.613Z,90.75
2019-05-16T18:21:27.719Z,90.97
2019-05-16T18:23:57.745Z,90.82
2019-05-16T18:26:29.494Z,90.99
2019-05-16T18:28:59.581Z,91.14
2019-05-16T18:31:32.159Z,90.92
2019-05-16T18:34:02.503Z,90.77
2019-05-16T18:36:32.582Z,90.95
2019-05-16T18:39:06.421Z,90.92
2019-05-16T18:41:36.618Z,90.94
2019-05-16T18:44:06.953Z,90.93
2019-05-16T18:46:37.067Z,90.76
2019-05-16T18:49:07.357Z,90.76
2019-05-16T18:51:39.648Z,90.83
2019-05-16T18:54:09.842Z,90.80
2019-05-16T18:56:39.958Z,90.88
2019-05-16T18:59:10.108Z,90.63
2019-05-16T19:01:40.222Z,90.88
2019-05-16T19:04:13.269Z,90.70
2019-05-16T19:06:42.184Z,90.51
2019-05-16T19:09:12.409Z,90.77
2019-05-16T19:11:42.590Z,90.72
2019-05-16T19:14:12.764Z,90.83
2019-05-16T19:16:42.891Z,91.01
2019-05-16T19:19:12.973Z,91.01
2019-05-16T19:21:44.151Z,91.21
2019-05-16T19:24:16.416Z,91.21
2019-05-16T19:26:47.092Z,91.28
2019-05-16T19:29:17.533Z,91.41
2019-05-16T19:31:50.372Z,91.34
2019-05-16T19:34:19.481Z,91.37
2019-05-16T19:36:49.520Z,91.44
2019-05-16T19:39:19.606Z,91.45
2019-05-16T19:41:49.704Z,91.33
2019-05-16T19:44:19.771Z,91.36
2019-05-16T19:46:49.749Z,91.32
2019-05-16T19:49:19.783Z,91.28
2019-05-16T19:51:49.818Z,91.37
2019-05-16T19:54:20.039Z,91.36
2019-05-16T19:56:50.236Z,91.51
2019-05-16T19:59:20.320Z,91.59
2019-05-16T20:01:50.793Z,91.72
2019-05-16T20:04:20.905Z,91.56
2019-05-16T20:06:51.075Z,91.75
2019-05-16T20:09:21.171Z,91.71
2019-05-16T20:11:51.188Z,91.70
2019-05-16T20:14:24.360Z,91.79
2019-05-16T20:16:56.672Z,91.71
2019-05-16T20:19:26.949Z,91.45
2019-05-16T20:21:58.127Z,91.53
2019-05-16T20:24:28.314Z,91.70
2019-05-16T20:26:58.394Z,91.70
2019-05-16T20:29:31.543Z,91.74
2019-05-16T20:32:01.580Z,91.64
2019-05-16T20:34:31.604Z,91.97
2019-05-16T20:37:01.638Z,91.80
2019-05-16T20:39:33.187Z,91.93
2019-05-16T20:42:03.214Z,92.04
2019-05-16T20:44:33.242Z,92.18
2019-05-16T20:47:03.258Z,92.29
2019-05-16T20:49:33.452Z,92.34
2019-05-16T20:52:03.596Z,92.40
2019-05-16T20:54:33.875Z,92.25
2019-05-16T20:57:06.625Z,92.10
2019-05-16T20:59:35.962Z,91.88
2019-05-16T21:02:07.268Z,91.39
2019-05-16T21:04:37.594Z,91.14
2019-05-16T21:07:11.058Z,91.13
2019-05-16T21:09:39.572Z,91.25
2019-05-16T21:12:09.599Z,90.96
2019-05-16T21:14:39.623Z,90.97
2019-05-16T21:17:10.090Z,91.22
2019-05-16T21:19:40.161Z,91.51
2019-05-16T21:22:13.581Z,91.59
2019-05-16T21:24:43.617Z,91.46
2019-05-16T21:27:13.699Z,91.18
2019-05-16T21:29:47.152Z,91.12
2019-05-16T21:32:17.323Z,90.96
2019-05-16T21:34:47.367Z,90.92
2019-05-16T21:37:20.347Z,91.14
2019-05-16T21:39:51.815Z,91.13
2019-05-16T21:42:21.900Z,91.42
2019-05-16T21:44:52.099Z,90.98
2019-05-16T21:47:27.570Z,91.16
2019-05-16T21:49:57.105Z,91.33
2019-05-16T21:52:28.893Z,91.11
2019-05-16T21:54:59.033Z,91.01
2019-05-16T21:57:30.109Z,91.17
2019-05-16T22:00:03.111Z,91.35
2019-05-16T22:02:38.052Z,91.00
2019-05-16T22:05:08.699Z,91.36
2019-05-16T22:07:40.292Z,91.85
2019-05-16T22:10:11.141Z,91.28
2019-05-16T22:12:41.381Z,91.23
2019-05-16T22:15:11.825Z,91.49
2019-05-16T22:17:43.505Z,91.61
2019-05-16T22:20:16.679Z,91.69
2019-05-16T22:22:47.137Z,91.47
2019-05-16T22:25:17.346Z,91.43
2019-05-16T22:27:48.941Z,91.46
2019-05-16T22:30:19.710Z,91.66
2019-05-16T22:32:50.054Z,91.76
2019-05-16T22:35:21.472Z,91.35
2019-05-16T22:37:55.539Z,91.34
2019-05-16T22:40:27.123Z,91.36
2019-05-16T22:42:58.775Z,91.46
2019-05-16T22:45:29.025Z,91.23
2019-05-16T22:47:59.064Z,91.37
2019-05-16T22:50:29.072Z,90.95
2019-05-16T22:52:59.091Z,91.29
2019-05-16T22:55:29.238Z,91.31
2019-05-16T22:58:02.088Z,91.51
2019-05-16T23:00:33.593Z,91.46
2019-05-16T23:03:03.621Z,91.60
2019-05-16T23:05:33.723Z,91.76
2019-05-16T23:08:08.918Z,91.99
2019-05-16T23:10:36.781Z,92.04
2019-05-16T23:13:07.326Z,92.11
2019-05-16T23:15:37.625Z,92.11
2019-05-16T23:18:07.703Z,92.18
2019-05-16T23:20:37.729Z,92.30
2019-05-16T23:23:07.762Z,92.30
2019-05-16T23:25:37.790Z,92.31
2019-05-16T23:28:09.408Z,92.34
2019-05-16T23:30:39.418Z,92.39
2019-05-16T23:33:12.493Z,92.42
2019-05-16T23:35:43.640Z,92.43
2019-05-16T23:38:19.249Z,92.48
2019-05-16T23:40:46.905Z,92.49
2019-05-16T23:43:17.030Z,92.55
2019-05-16T23:45:47.060Z,92.59
2019-05-16T23:48:18.666Z,92.61
2019-05-16T23:50:48.767Z,92.63
2019-05-16T23:53:18.767Z,92.63
2019-05-16T23:55:48.796Z,92.67
2019-05-16T23:58:18.822Z,92.66
